Time;durP1;ratioP1;P1;durP2;ratioP2;P2;SDS_P1;SDS_P2;PMS_P1;PMS_P2;Temp;Humidity;BMP_temperature;BMP_pressure;BME280_temperature;BME280_humidity;BME280_pressure;Samples;Min_cycle;Max_cycle;Signal;HPM_P1;HPM_P2
2024/02/03 00:00:21;;;;;;;0.60;0.60;;;8.50;12.20;;;;;;5087186;28;20239;-82
2024/02/03 00:02:47;;;;;;;0.93;0.90;;;8.40;11.90;;;;;;5085652;28;20211;-82
2024/02/03 00:05:16;;;;;;;0.77;0.77;;;8.40;12.40;;;;;;5082617;28;20560;-82
2024/02/03 00:10:24;;;;;;;0.70;0.70;;;8.40;11.80;;;;;;5080404;28;20206;-81
2024/02/03 00:12:58;;;;;;;0.95;0.90;;;8.40;12.20;;;;;;5081945;28;20205;-81
2024/02/03 00:15:27;;;;;;;0.70;0.70;;;8.30;11.70;;;;;;5079534;28;20218;-81
2024/02/03 00:17:54;;;;;;;0.80;0.70;;;8.30;12.10;;;;;;5080197;28;20292;-81
2024/02/03 00:20:22;;;;;;;0.85;0.73;;;8.30;11.50;;;;;;5074867;28;20224;-81
2024/02/03 00:22:51;;;;;;;0.90;0.90;;;8.40;10.90;;;;;;5080357;28;20208;-80
2024/02/03 00:25:18;;;;;;;0.70;0.70;;;8.60;10.10;;;;;;5082178;28;20200;-81
2024/02/03 00:27:44;;;;;;;0.70;0.70;;;8.60;11.00;;;;;;5082781;28;20571;-82
2024/02/03 00:30:12;;;;;;;0.90;0.88;;;8.50;10.90;;;;;;5085281;28;20200;-80
2024/02/03 00:32:38;;;;;;;0.73;0.73;;;8.60;10.40;;;;;;5082297;28;20295;-81
2024/02/03 00:35:06;;;;;;;0.80;0.80;;;8.70;10.30;;;;;;5079474;28;20205;-81
2024/02/03 00:37:34;;;;;;;0.60;0.60;;;8.90;9.30;;;;;;5085153;28;20197;-81
2024/02/03 00:40:02;;;;;;;1.00;0.90;;;8.90;9.70;;;;;;5084591;28;20220;-81
2024/02/03 00:42:28;;;;;;;0.60;0.60;;;8.90;10.30;;;;;;5082530;28;20196;-81
2024/02/03 00:44:55;;;;;;;1.42;1.30;;;8.80;9.70;;;;;;5078256;28;20205;-81
2024/02/03 00:47:22;;;;;;;0.75;0.60;;;8.70;10.30;;;;;;5087724;28;20196;-81
2024/02/03 00:49:49;;;;;;;0.75;0.75;;;8.80;10.00;;;;;;5080316;28;20228;-81
2024/02/03 00:52:16;;;;;;;0.70;0.70;;;8.90;9.20;;;;;;5081120;28;20193;-80
2024/02/03 00:54:44;;;;;;;0.85;0.85;;;8.90;9.20;;;;;;5078221;28;20442;-82
2024/02/03 00:57:11;;;;;;;0.82;0.82;;;8.90;10.00;;;;;;5079935;28;20259;-81
2024/02/03 00:59:37;;;;;;;0.85;0.85;;;8.90;9.20;;;;;;5086199;28;20216;-81
2024/02/03 01:02:04;;;;;;;0.80;0.80;;;8.90;8.40;;;;;;5085287;28;20205;-82
2024/02/03 01:04:31;;;;;;;0.80;0.80;;;8.90;8.70;;;;;;5082177;28;20207;-80
2024/02/03 01:07:01;;;;;;;1.17;1.13;;;8.90;8.50;;;;;;5082940;28;20197;-81
2024/02/03 01:09:27;;;;;;;0.63;0.63;;;8.90;9.00;;;;;;5086117;28;20234;-81
2024/02/03 01:11:56;;;;;;;0.98;0.98;;;8.90;8.90;;;;;;5084972;28;20212;-82
2024/02/03 01:14:23;;;;;;;1.75;0.75;;;8.80;9.00;;;;;;5075627;28;20254;-81
2024/02/03 01:16:52;;;;;;;0.88;0.80;;;8.80;8.70;;;;;;5087032;28;20287;-81
2024/02/03 01:19:21;;;;;;;0.85;0.85;;;9.00;8.20;;;;;;5085189;28;20227;-81
2024/02/03 01:21:48;;;;;;;0.70;0.70;;;8.90;8.60;;;;;;5084782;28;20220;-81
2024/02/03 01:24:15;;;;;;;1.00;0.98;;;8.80;9.70;;;;;;5091353;28;20212;-80
2024/02/03 01:26:41;;;;;;;0.60;0.60;;;8.80;9.70;;;;;;5087055;28;20193;-80
2024/02/03 01:29:09;;;;;;;1.20;1.10;;;8.70;10.00;;;;;;5082273;28;20201;-80
2024/02/03 01:31:39;;;;;;;0.70;0.70;;;8.70;9.50;;;;;;5083917;28;20193;-81
2024/02/03 01:34:06;;;;;;;0.80;0.80;;;8.70;10.30;;;;;;5085536;28;20200;-81
2024/02/03 01:36:32;;;;;;;0.60;0.52;;;8.70;9.80;;;;;;5083748;28;20207;-81
2024/02/03 01:38:59;;;;;;;0.80;0.80;;;8.60;10.10;;;;;;5085516;28;20587;-81
2024/02/03 01:41:27;;;;;;;0.60;0.60;;;8.60;9.60;;;;;;5087861;28;20193;-81
2024/02/03 01:43:53;;;;;;;0.73;0.73;;;8.60;9.80;;;;;;5081045;28;20210;-81
2024/02/03 01:46:22;;;;;;;0.73;0.73;;;8.60;9.70;;;;;;5077481;28;20204;-81
2024/02/03 01:48:50;;;;;;;2.60;1.02;;;8.60;9.60;;;;;;5085453;28;20204;-81
2024/02/03 01:51:19;;;;;;;0.90;0.90;;;8.60;9.80;;;;;;5081332;28;20193;-81
2024/02/03 01:53:47;;;;;;;0.57;0.57;;;8.60;9.50;;;;;;5083450;28;20216;-83
2024/02/03 01:56:15;;;;;;;0.80;0.80;;;8.60;9.70;;;;;;5082571;28;20224;-81
2024/02/03 01:58:42;;;;;;;0.50;0.50;;;8.60;9.60;;;;;;5086718;28;20205;-81
2024/02/03 02:01:11;;;;;;;0.60;0.60;;;8.60;8.70;;;;;;5084916;28;20228;-81
2024/02/03 02:03:39;;;;;;;0.63;0.63;;;8.60;10.20;;;;;;5083760;28;20193;-81
2024/02/03 02:06:07;;;;;;;0.60;0.60;;;8.60;9.70;;;;;;5089644;28;20665;-81
2024/02/03 02:08:35;;;;;;;0.80;0.80;;;8.50;9.90;;;;;;5082558;28;20192;-81
2024/02/03 02:11:03;;;;;;;0.63;0.63;;;8.50;9.50;;;;;;5089369;28;20683;-81
2024/02/03 02:13:30;;;;;;;0.88;0.88;;;8.40;9.70;;;;;;5086489;28;20676;-81
2024/02/03 02:15:57;;;;;;;1.25;1.10;;;8.40;9.30;;;;;;5081505;28;20197;-81
2024/02/03 02:18:24;;;;;;;0.68;0.60;;;8.60;8.70;;;;;;5087281;28;20196;-81
2024/02/03 02:20:52;;;;;;;1.05;0.80;;;8.50;8.80;;;;;;5085021;28;20227;-82
2024/02/03 02:23:19;;;;;;;0.63;0.63;;;8.50;9.50;;;;;;5088563;28;20551;-82
2024/02/03 02:25:46;;;;;;;0.70;0.70;;;8.50;8.80;;;;;;5087368;28;20205;-81
2024/02/03 02:28:13;;;;;;;0.60;0.60;;;8.50;8.60;;;;;;5084460;28;20679;-81
2024/02/03 02:30:40;;;;;;;0.60;0.60;;;8.50;8.20;;;;;;5090871;28;20201;-81
2024/02/03 02:33:08;;;;;;;0.70;0.70;;;8.50;9.00;;;;;;5081188;28;20201;-82
2024/02/03 02:35:35;;;;;;;0.60;0.57;;;8.50;9.20;;;;;;5082749;28;20559;-82
2024/02/03 02:38:03;;;;;;;1.35;0.75;;;8.40;9.10;;;;;;5081547;28;20208;-81
2024/02/03 02:40:30;;;;;;;0.80;0.80;;;8.30;8.90;;;;;;5084345;28;20220;-81
2024/02/03 02:42:57;;;;;;;0.80;0.63;;;8.40;8.50;;;;;;5079948;28;20649;-81
2024/02/03 02:45:24;;;;;;;0.75;0.75;;;8.30;9.20;;;;;;5081990;28;20193;-81
2024/02/03 02:47:51;;;;;;;0.85;0.60;;;8.20;8.70;;;;;;5089665;28;20196;-81
2024/02/03 02:50:18;;;;;;;1.27;0.73;;;8.20;8.80;;;;;;5077299;28;20201;-81
2024/02/03 02:52:44;;;;;;;0.57;0.57;;;8.20;8.80;;;;;;5078520;28;20205;-80
2024/02/03 02:55:16;;;;;;;0.68;0.68;;;8.10;9.30;;;;;;5071220;28;20197;-81
2024/02/03 02:57:43;;;;;;;0.70;0.70;;;8.00;9.70;;;;;;5082365;28;20217;-80
2024/02/03 03:00:11;;;;;;;0.65;0.65;;;7.90;9.30;;;;;;5086274;28;20223;-81
2024/02/03 03:02:38;;;;;;;0.70;0.60;;;7.90;10.10;;;;;;5084532;28;20208;-80
2024/02/03 03:05:12;;;;;;;1.70;0.65;;;7.90;9.50;;;;;;5084185;28;20205;-81
2024/02/03 03:07:40;;;;;;;1.10;0.80;;;7.90;9.40;;;;;;5086919;28;20201;-81
2024/02/03 03:10:07;;;;;;;0.98;0.93;;;8.10;9.40;;;;;;5082449;28;20287;-81
2024/02/03 03:12:36;;;;;;;0.60;0.60;;;8.10;7.80;;;;;;5087133;28;20654;-81
2024/02/03 03:15:03;;;;;;;0.75;0.75;;;8.10;9.30;;;;;;5083746;28;20204;-81
2024/02/03 03:17:30;;;;;;;0.80;0.70;;;8.10;8.50;;;;;;5082381;28;20199;-80
2024/02/03 03:19:57;;;;;;;0.80;0.80;;;8.10;8.60;;;;;;5088782;28;20624;-80
2024/02/03 03:22:23;;;;;;;0.70;0.70;;;8.00;7.90;;;;;;5081960;28;20193;-80
2024/02/03 03:24:50;;;;;;;0.75;0.75;;;8.20;8.10;;;;;;5084666;28;20220;-81
2024/02/03 03:27:17;;;;;;;1.83;0.60;;;8.20;7.80;;;;;;5086214;28;20202;-80
2024/02/03 03:29:47;;;;;;;0.52;0.52;;;8.20;7.90;;;;;;5088080;28;20571;-81
2024/02/03 03:32:14;;;;;;;0.60;0.60;;;8.10;8.10;;;;;;5085980;28;20576;-80
2024/02/03 03:34:41;;;;;;;0.60;0.60;;;8.20;7.80;;;;;;5080538;28;20227;-81
2024/02/03 03:37:08;;;;;;;0.60;0.60;;;8.10;8.00;;;;;;5086705;28;20275;-80
2024/02/03 03:39:35;;;;;;;0.60;0.55;;;8.10;7.30;;;;;;5073934;28;20211;-80
2024/02/03 03:42:02;;;;;;;1.58;1.48;;;8.20;7.30;;;;;;5073731;28;20302;-80
2024/02/03 03:44:31;;;;;;;0.68;0.68;;;8.20;7.80;;;;;;5088448;28;20200;-81
2024/02/03 03:46:59;;;;;;;1.20;1.17;;;8.20;7.10;;;;;;5080460;28;20289;-80
2024/02/03 03:49:31;;;;;;;0.60;0.57;;;8.20;7.50;;;;;;5087339;28;20671;-81
2024/02/03 03:51:59;;;;;;;1.15;0.93;;;8.20;8.30;;;;;;5086410;28;20550;-81
2024/02/03 03:54:25;;;;;;;0.60;0.60;;;8.20;7.90;;;;;;5081914;28;20216;-81
2024/02/03 03:56:52;;;;;;;1.13;1.02;;;8.10;8.00;;;;;;5083840;28;20216;-83
2024/02/03 03:59:19;;;;;;;0.60;0.60;;;8.00;8.50;;;;;;5088427;28;20207;-80
2024/02/03 04:01:51;;;;;;;3.60;2.50;;;7.90;8.60;;;;;;5077994;28;20482;-81
2024/02/03 04:04:22;;;;;;;0.90;0.70;;;7.90;8.30;;;;;;5083202;28;20215;-81
2024/02/03 04:06:49;;;;;;;1.13;1.13;;;7.90;8.50;;;;;;5079457;28;20200;-81
2024/02/03 04:09:17;;;;;;;0.65;0.65;;;7.90;9.20;;;;;;5078609;28;20679;-81
2024/02/03 04:11:44;;;;;;;0.63;0.63;;;7.90;9.10;;;;;;5083717;28;20552;-80
2024/02/03 04:14:10;;;;;;;0.88;0.88;;;7.80;9.00;;;;;;5087988;28;20204;-81
2024/02/03 04:16:37;;;;;;;0.77;0.77;;;7.80;9.00;;;;;;5079889;28;20194;-81
2024/02/03 04:19:04;;;;;;;0.82;0.82;;;7.80;9.60;;;;;;5081333;28;20204;-80
2024/02/03 04:21:32;;;;;;;0.70;0.70;;;7.80;9.70;;;;;;5088283;28;20694;-80
2024/02/03 04:23:59;;;;;;;0.90;0.90;;;7.70;10.00;;;;;;5085359;28;20657;-81
2024/02/03 04:26:26;;;;;;;0.63;0.63;;;7.70;10.50;;;;;;5086171;28;20196;-80
2024/02/03 04:28:53;;;;;;;1.10;0.85;;;7.60;10.00;;;;;;5081123;28;20291;-81
2024/02/03 04:31:20;;;;;;;0.85;0.85;;;7.50;10.30;;;;;;5081373;28;20283;-81
2024/02/03 04:33:47;;;;;;;1.23;0.90;;;7.50;10.80;;;;;;5082593;28;20574;-81
2024/02/03 04:36:14;;;;;;;2.30;0.95;;;7.50;11.00;;;;;;5079263;28;20197;-81
2024/02/03 04:38:42;;;;;;;1.27;0.95;;;7.60;11.50;;;;;;5080376;28;20193;-80
2024/02/03 04:41:09;;;;;;;0.80;0.80;;;7.60;11.30;;;;;;5078637;28;22019;-80
2024/02/03 04:43:36;;;;;;;0.98;0.98;;;7.60;11.40;;;;;;5084023;28;20196;-80
2024/02/03 04:46:02;;;;;;;0.95;0.85;;;7.50;11.40;;;;;;5081598;28;20197;-80
2024/02/03 04:48:29;;;;;;;0.85;0.85;;;7.50;11.60;;;;;;5085887;28;20203;-81
2024/02/03 04:50:56;;;;;;;1.05;0.95;;;7.50;11.30;;;;;;5083689;28;20204;-81
2024/02/03 04:53:23;;;;;;;0.75;0.75;;;7.40;11.80;;;;;;5090860;28;20204;-80
2024/02/03 04:55:51;;;;;;;0.77;0.68;;;7.40;11.80;;;;;;5086372;28;20679;-83
2024/02/03 04:58:18;;;;;;;0.73;0.73;;;7.40;12.20;;;;;;5073210;28;20223;-80
2024/02/03 05:00:46;;;;;;;1.08;0.80;;;7.40;11.90;;;;;;5083299;28;20248;-80
2024/02/03 05:03:12;;;;;;;1.17;1.08;;;7.40;11.90;;;;;;5086667;28;20189;-81
2024/02/03 05:05:39;;;;;;;0.77;0.77;;;7.30;12.90;;;;;;5091381;28;20193;-80
2024/02/03 05:08:06;;;;;;;1.20;1.10;;;7.30;12.80;;;;;;5088180;28;20279;-80
2024/02/03 05:10:34;;;;;;;2.28;0.90;;;7.30;12.30;;;;;;5085771;28;20208;-80
2024/02/03 05:13:02;;;;;;;0.82;0.70;;;7.40;12.30;;;;;;5084734;28;20660;-80
2024/02/03 05:15:29;;;;;;;0.80;0.80;;;7.30;13.80;;;;;;5084547;28;20239;-81
2024/02/03 05:17:56;;;;;;;0.80;0.80;;;7.20;13.00;;;;;;5078860;28;20201;-81
2024/02/03 05:20:23;;;;;;;1.20;1.02;;;7.10;13.30;;;;;;5084141;28;20310;-81
2024/02/03 05:22:50;;;;;;;1.38;1.25;;;7.10;13.80;;;;;;5089926;28;20204;-80
2024/02/03 05:25:17;;;;;;;2.00;1.67;;;7.30;13.50;;;;;;5084894;28;20208;-80
2024/02/03 05:27:44;;;;;;;1.15;1.05;;;7.70;13.60;;;;;;5088642;28;20192;-80
2024/02/03 05:30:14;;;;;;;0.70;0.70;;;7.70;13.60;;;;;;5088755;28;20211;-80
2024/02/03 05:32:40;;;;;;;1.73;1.25;;;7.60;13.50;;;;;;5084816;28;20193;-80
2024/02/03 05:35:10;;;;;;;1.38;0.90;;;7.50;14.00;;;;;;5086312;28;20549;-81
2024/02/03 05:37:37;;;;;;;1.20;0.60;;;7.40;14.00;;;;;;5076819;28;20193;-80
2024/02/03 05:40:05;;;;;;;1.05;0.98;;;7.30;13.70;;;;;;5083778;28;20192;-81
2024/02/03 05:42:31;;;;;;;1.30;1.20;;;7.30;13.60;;;;;;5085950;28;20218;-80
2024/02/03 05:44:59;;;;;;;2.10;1.10;;;7.30;14.30;;;;;;5087258;28;20211;-81
2024/02/03 05:47:27;;;;;;;0.70;0.70;;;7.20;14.30;;;;;;5089521;28;20633;-80
2024/02/03 05:49:54;;;;;;;0.90;0.90;;;7.30;13.80;;;;;;5080610;28;20201;-81
2024/02/03 05:52:21;;;;;;;0.80;0.80;;;7.30;14.10;;;;;;5090238;28;20644;-80
2024/02/03 05:54:48;;;;;;;0.63;0.60;;;7.40;13.90;;;;;;5088160;28;20200;-81
2024/02/03 05:57:15;;;;;;;0.85;0.85;;;7.50;15.30;;;;;;5088286;28;20216;-80
2024/02/03 05:59:44;;;;;;;1.40;1.20;;;7.50;14.30;;;;;;5086703;28;20204;-80
2024/02/03 06:02:11;;;;;;;0.82;0.80;;;7.60;14.70;;;;;;5063327;28;20317;-80
2024/02/03 06:04:40;;;;;;;0.80;0.80;;;7.70;14.00;;;;;;5092416;28;20196;-80
2024/02/03 06:07:07;;;;;;;1.10;1.00;;;7.70;14.60;;;;;;5083338;28;20201;-79
2024/02/03 06:09:34;;;;;;;0.70;0.70;;;7.60;14.20;;;;;;5085273;28;20197;-79
2024/02/03 06:12:00;;;;;;;1.27;1.00;;;7.50;14.60;;;;;;5083087;28;20204;-80
2024/02/03 06:14:27;;;;;;;0.80;0.80;;;7.50;15.10;;;;;;5086500;28;20196;-80
2024/02/03 06:16:54;;;;;;;0.80;0.80;;;7.40;14.90;;;;;;5088694;28;20212;-80
2024/02/03 06:19:21;;;;;;;0.80;0.80;;;7.30;15.10;;;;;;5086697;28;20638;-80
2024/02/03 06:21:50;;;;;;;1.17;0.70;;;7.30;16.00;;;;;;5085779;28;20231;-80
2024/02/03 06:24:17;;;;;;;0.65;0.65;;;7.30;15.30;;;;;;5085675;28;20196;-80
2024/02/03 06:26:44;;;;;;;0.70;0.70;;;7.30;16.80;;;;;;5083889;28;20188;-80
2024/02/03 06:29:11;;;;;;;1.15;1.08;;;7.30;16.00;;;;;;5088802;28;20196;-80
2024/02/03 06:31:38;;;;;;;1.30;1.02;;;7.30;16.50;;;;;;5087049;28;20196;-79
2024/02/03 06:34:05;;;;;;;5.80;1.10;;;7.40;16.70;;;;;;5083519;28;20207;-80
2024/02/03 06:36:34;;;;;;;0.80;0.80;;;7.40;16.00;;;;;;5082391;28;20273;-80
2024/02/03 06:39:03;;;;;;;1.10;0.90;;;7.40;15.50;;;;;;5086168;28;20212;-80
2024/02/03 06:41:30;;;;;;;1.30;0.80;;;7.50;15.40;;;;;;5088045;28;20269;-80
2024/02/03 06:44:00;;;;;;;1.30;1.00;;;7.40;15.70;;;;;;5088927;28;20692;-80
2024/02/03 06:46:27;;;;;;;0.90;0.90;;;7.40;16.30;;;;;;5086267;28;20207;-81
2024/02/03 06:48:54;;;;;;;0.90;0.90;;;7.40;15.70;;;;;;5079978;28;20538;-80
2024/02/03 06:51:20;;;;;;;0.90;0.90;;;7.30;15.70;;;;;;5086442;28;20209;-80
2024/02/03 06:53:47;;;;;;;0.93;0.88;;;7.30;15.40;;;;;;5084821;28;20200;-80
2024/02/03 06:56:15;;;;;;;3.00;1.05;;;7.40;15.00;;;;;;5085960;28;20225;-80
2024/02/03 06:58:42;;;;;;;1.15;1.05;;;7.40;15.10;;;;;;5076950;28;20189;-80
2024/02/03 07:01:09;;;;;;;1.00;0.90;;;7.40;14.90;;;;;;5085603;28;20228;-81
2024/02/03 07:03:36;;;;;;;0.95;0.95;;;7.40;15.00;;;;;;5090048;28;20193;-80
2024/02/03 07:06:03;;;;;;;1.20;1.10;;;7.40;15.20;;;;;;5088456;28;20197;-81
2024/02/03 07:08:31;;;;;;;1.95;1.00;;;7.50;15.60;;;;;;5084628;28;20579;-80
2024/02/03 07:10:58;;;;;;;1.30;1.20;;;7.50;15.40;;;;;;5081727;28;20565;-80
2024/02/03 07:13:27;;;;;;;1.60;1.05;;;7.50;14.90;;;;;;5088744;28;20338;-80
2024/02/03 07:15:54;;;;;;;3.60;3.30;;;7.50;15.80;;;;;;5078373;28;22003;-80
2024/02/03 07:18:21;;;;;;;1.23;1.13;;;7.70;16.70;;;;;;5087388;28;20585;-80
2024/02/03 07:20:48;;;;;;;1.20;1.10;;;7.70;15.80;;;;;;5069633;28;20220;-80
2024/02/03 07:23:15;;;;;;;1.00;1.00;;;7.70;15.70;;;;;;5083986;28;20207;-80
2024/02/03 07:25:42;;;;;;;1.38;1.10;;;7.80;15.80;;;;;;5084805;28;20287;-82
2024/02/03 07:28:08;;;;;;;1.10;1.00;;;7.90;15.90;;;;;;5061496;28;20432;-80
2024/02/03 07:30:36;;;;;;;3.00;1.00;;;7.90;16.70;;;;;;5089809;28;20197;-80
2024/02/03 07:33:12;;;;;;;1.13;0.98;;;7.90;16.30;;;;;;5089723;28;21270;-80
2024/02/03 07:35:39;;;;;;;1.02;0.95;;;7.90;16.40;;;;;;5081069;28;20202;-80
2024/02/03 07:38:06;;;;;;;1.88;1.00;;;7.90;16.30;;;;;;5080529;28;20200;-80
2024/02/03 07:40:32;;;;;;;0.75;0.75;;;8.00;16.40;;;;;;5082225;28;20638;-87
2024/02/03 07:42:59;;;;;;;0.90;0.90;;;8.10;16.30;;;;;;5083956;28;20547;-80
2024/02/03 07:45:26;;;;;;;0.98;0.88;;;8.10;17.30;;;;;;5078176;28;20209;-80
2024/02/03 07:47:54;;;;;;;1.65;1.00;;;8.20;16.10;;;;;;5087103;28;20202;-80
2024/02/03 07:50:21;;;;;;;1.10;1.00;;;8.20;16.50;;;;;;5085115;28;20281;-81
2024/02/03 07:52:48;;;;;;;1.20;1.10;;;8.20;16.70;;;;;;5081137;28;20661;-80
2024/02/03 07:55:15;;;;;;;0.90;0.90;;;8.30;16.60;;;;;;5087793;28;20279;-80
2024/02/03 07:57:42;;;;;;;1.20;1.10;;;8.50;16.40;;;;;;5083859;28;20212;-81
2024/02/03 08:00:10;;;;;;;1.00;1.00;;;8.90;16.00;;;;;;5084876;28;20706;-81
2024/02/03 08:02:36;;;;;;;2.47;1.00;;;9.40;14.60;;;;;;5086438;28;20292;-80
2024/02/03 08:05:05;;;;;;;3.13;1.30;;;9.60;13.80;;;;;;5081731;28;20205;-81
2024/02/03 08:07:32;;;;;;;1.20;1.08;;;9.60;14.00;;;;;;5082453;28;20212;-81
2024/02/03 08:09:59;;;;;;;1.25;1.00;;;9.70;13.70;;;;;;5085283;28;20194;-81
2024/02/03 08:12:26;;;;;;;2.03;1.27;;;9.70;12.90;;;;;;5082698;28;20197;-80
2024/02/03 08:14:53;;;;;;;1.40;1.30;;;9.80;13.30;;;;;;5064688;28;20209;-81
2024/02/03 08:17:20;;;;;;;0.88;0.88;;;9.80;13.00;;;;;;5078365;28;20642;-79
2024/02/03 08:19:47;;;;;;;0.95;0.95;;;9.80;13.00;;;;;;5088844;28;20238;-80
2024/02/03 08:22:15;;;;;;;1.08;0.98;;;9.70;13.90;;;;;;5087709;28;20709;-81
2024/02/03 08:24:42;;;;;;;1.08;1.00;;;9.80;12.20;;;;;;5084498;28;20275;-80
2024/02/03 08:27:09;;;;;;;1.30;1.20;;;9.80;12.40;;;;;;5076540;28;20214;-80
2024/02/03 08:29:36;;;;;;;2.50;0.95;;;9.80;12.70;;;;;;5069759;28;20207;-82
2024/02/03 08:32:03;;;;;;;2.58;1.10;;;9.80;11.90;;;;;;5066892;28;20205;-81
2024/02/03 08:34:32;;;;;;;0.63;0.63;;;10.00;10.70;;;;;;5086613;28;20197;-82
2024/02/03 08:36:59;;;;;;;1.50;1.25;;;10.10;11.00;;;;;;5087379;28;20192;-81
2024/02/03 08:39:27;;;;;;;1.60;1.10;;;10.30;10.50;;;;;;5087931;28;20267;-82
2024/02/03 08:41:55;;;;;;;1.45;1.20;;;10.50;10.80;;;;;;5086907;28;20225;-82
2024/02/03 08:44:22;;;;;;;1.35;1.20;;;10.80;9.10;;;;;;5092338;28;20783;-81
2024/02/03 08:46:54;;;;;;;1.77;1.10;;;10.90;8.90;;;;;;5083606;28;20215;-79
2024/02/03 08:49:21;;;;;;;2.47;1.10;;;11.10;9.30;;;;;;5084762;28;20185;-80
2024/02/03 08:51:48;;;;;;;1.73;1.20;;;11.00;8.30;;;;;;5084812;28;20215;-84
2024/02/03 08:54:15;;;;;;;1.45;1.30;;;11.20;8.00;;;;;;5083236;28;20208;-81
2024/02/03 08:56:43;;;;;;;1.23;1.00;;;11.20;8.60;;;;;;5089262;28;20216;-83
2024/02/03 08:59:10;;;;;;;1.98;1.63;;;11.30;8.30;;;;;;5087531;28;20201;-82
2024/02/03 09:01:37;;;;;;;3.80;1.30;;;11.50;8.40;;;;;;5085120;28;20227;-82
2024/02/03 09:04:07;;;;;;;1.33;1.23;;;11.90;8.00;;;;;;5094083;28;20860;-81
2024/02/03 09:06:34;;;;;;;1.42;1.33;;;12.70;6.20;;;;;;5094159;28;20220;-82
2024/02/03 09:09:01;;;;;;;0.85;0.85;;;13.40;6.30;;;;;;5087110;28;20192;-82
2024/02/03 09:11:27;;;;;;;0.80;0.80;;;14.20;4.90;;;;;;5086659;28;20924;-82
2024/02/03 09:13:56;;;;;;;1.60;0.90;;;14.90;4.30;;;;;;5088386;28;20196;-79
2024/02/03 09:16:22;;;;;;;1.63;1.08;;;15.50;4.20;;;;;;5086151;28;20192;-82
2024/02/03 09:18:49;;;;;;;2.38;1.35;;;15.70;3.90;;;;;;5085392;28;20670;-79
2024/02/03 09:21:16;;;;;;;2.75;1.10;;;15.70;4.00;;;;;;5085961;28;20208;-80
2024/02/03 09:23:43;;;;;;;1.38;1.27;;;15.90;2.90;;;;;;5086659;28;20201;-79
2024/02/03 09:26:10;;;;;;;1.83;1.30;;;16.50;3.30;;;;;;5090834;28;20678;-79
2024/02/03 09:28:36;;;;;;;1.25;1.15;;;17.20;2.40;;;;;;5085179;28;20192;-79
2024/02/03 09:31:05;;;;;;;1.48;1.38;;;18.00;2.50;;;;;;5085235;28;20941;-78
2024/02/03 09:33:32;;;;;;;2.65;1.58;;;18.80;1.00;;;;;;5086234;28;20288;-77
2024/02/03 09:35:59;;;;;;;1.73;1.10;;;18.70;1.30;;;;;;5085787;28;20205;-77
2024/02/03 09:38:25;;;;;;;1.70;1.35;;;19.10;1.00;;;;;;5084566;28;20664;-77
2024/02/03 09:41:11;;;;;;;1.00;1.00;;;18.90;1.10;;;;;;5086635;28;20204;-78
2024/02/03 09:43:38;;;;;;;0.90;0.90;;;18.70;1.60;;;;;;5086834;28;20207;-77
2024/02/03 09:46:06;;;;;;;1.40;1.30;;;18.90;1.60;;;;;;5084533;28;20208;-80
2024/02/03 09:48:33;;;;;;;2.08;1.30;;;19.20;2.00;;;;;;5083958;28;20653;-76
2024/02/03 09:51:01;;;;;;;1.17;1.08;;;19.40;1.70;;;;;;5086240;28;20560;-79
2024/02/03 09:53:29;;;;;;;1.08;1.00;;;19.30;2.00;;;;;;5086901;28;20204;-76
2024/02/03 09:55:57;;;;;;;1.42;1.33;;;18.80;2.00;;;;;;5081216;28;20202;-77
2024/02/03 09:58:25;;;;;;;2.38;2.05;;;19.30;2.30;;;;;;5088628;28;20246;-83
2024/02/03 10:00:53;;;;;;;2.90;1.80;;;19.20;2.20;;;;;;5087914;28;20210;-84
2024/02/03 10:03:21;;;;;;;1.45;1.35;;;19.00;2.10;;;;;;5085630;28;20220;-83
2024/02/03 10:05:52;;;;;;;2.70;1.63;;;19.10;2.40;;;;;;5087203;28;20283;-79
2024/02/03 10:08:19;;;;;;;2.28;1.40;;;19.50;2.20;;;;;;5083085;28;20191;-78
2024/02/03 10:10:52;;;;;;;1.23;1.10;;;19.40;3.30;;;;;;5081981;28;20223;-79
2024/02/03 10:13:19;;;;;;;2.10;1.70;;;19.60;1.80;;;;;;5082386;28;20211;-82
2024/02/03 10:15:46;;;;;;;1.88;1.40;;;19.40;2.00;;;;;;5081698;28;20205;-83
2024/02/03 10:18:13;;;;;;;1.98;1.60;;;19.40;3.20;;;;;;5079724;28;20200;-77
2024/02/03 10:20:42;;;;;;;1.95;1.50;;;19.00;3.20;;;;;;5081913;28;20200;-75
2024/02/03 10:23:08;;;;;;;2.10;1.90;;;18.60;4.20;;;;;;5077970;28;20240;-75
2024/02/03 10:25:35;;;;;;;3.72;1.73;;;18.50;4.20;;;;;;5078519;28;21122;-76
2024/02/03 10:28:03;;;;;;;1.85;1.67;;;18.10;5.10;;;;;;5081972;28;20250;-78
2024/02/03 10:30:31;;;;;;;1.98;1.45;;;17.90;6.00;;;;;;5085892;28;20200;-81
2024/02/03 10:33:02;;;;;;;1.90;1.42;;;17.80;5.90;;;;;;5082350;28;20211;-78
2024/02/03 10:35:30;;;;;;;2.67;1.42;;;17.90;6.00;;;;;;5084610;28;20212;-78
2024/02/03 10:37:59;;;;;;;1.63;1.52;;;18.20;5.60;;;;;;5085136;28;20201;-77
2024/02/03 10:40:26;;;;;;;1.60;1.50;;;18.10;6.10;;;;;;5078814;28;20203;-78
2024/02/03 10:42:54;;;;;;;1.50;1.40;;;18.30;6.70;;;;;;5080363;28;20631;-78
2024/02/03 10:45:26;;;;;;;1.85;1.67;;;17.70;6.80;;;;;;5084678;28;20196;-79
2024/02/03 10:47:55;;;;;;;1.65;1.55;;;17.40;7.40;;;;;;5082403;28;20650;-78
2024/02/03 10:50:23;;;;;;;4.03;1.60;;;17.40;7.20;;;;;;5083321;28;20197;-78
2024/02/03 10:52:52;;;;;;;2.85;2.00;;;17.30;7.10;;;;;;5084489;28;20212;-79
2024/02/03 10:55:29;;;;;;;2.38;1.42;;;16.50;8.70;;;;;;5080177;28;20330;-79
2024/02/03 10:57:58;;;;;;;1.80;1.70;;;16.40;8.60;;;;;;5081330;28;20217;-77
2024/02/03 11:00:28;;;;;;;4.18;1.50;;;17.10;9.20;;;;;;5080588;28;20204;-78
2024/02/03 11:02:59;;;;;;;1.50;1.40;;;16.60;8.80;;;;;;5081557;28;20223;-78
2024/02/03 11:05:26;;;;;;;1.80;1.70;;;16.40;8.60;;;;;;5082935;28;20834;-77
2024/02/03 11:07:53;;;;;;;1.65;1.52;;;16.30;8.60;;;;;;5080837;28;20299;-78
2024/02/03 11:10:28;;;;;;;1.60;1.50;;;16.40;9.40;;;;;;5081385;28;20197;-81
2024/02/03 11:13:02;;;;;;;2.63;1.60;;;16.30;8.60;;;;;;5083373;28;20203;-86
2024/02/03 11:15:29;;;;;;;3.97;1.67;;;15.70;10.10;;;;;;5084857;28;20309;-81
2024/02/03 11:17:56;;;;;;;2.53;1.65;;;15.80;9.20;;;;;;5078899;28;20288;-81
2024/02/03 11:20:25;;;;;;;2.35;1.50;;;15.50;10.20;;;;;;5080299;28;20204;-79
2024/02/03 11:22:52;;;;;;;1.67;1.50;;;15.30;11.00;;;;;;5083783;28;20663;-80
2024/02/03 11:25:20;;;;;;;1.52;1.42;;;14.90;12.30;;;;;;5085347;28;20200;-86
2024/02/03 11:27:48;;;;;;;2.22;1.27;;;14.70;12.10;;;;;;5081491;28;20593;-87
2024/02/03 11:30:18;;;;;;;2.38;1.42;;;14.40;12.90;;;;;;5082026;28;20188;-85
2024/02/03 11:32:45;;;;;;;1.50;1.40;;;14.20;13.60;;;;;;5085632;28;20637;-92
2024/02/03 11:35:15;;;;;;;2.33;1.58;;;14.20;14.20;;;;;;5085468;28;20264;-95
2024/02/03 11:37:42;;;;;;;1.48;1.38;;;14.00;13.70;;;;;;5074032;28;20303;-92
2024/02/03 11:40:10;;;;;;;2.22;1.30;;;13.90;14.70;;;;;;5072241;28;20200;-91
2024/02/03 11:42:38;;;;;;;1.60;1.25;;;13.70;14.50;;;;;;5081056;28;20224;-91
2024/02/03 11:45:17;;;;;;;1.45;1.35;;;13.80;14.80;;;;;;5079618;28;20562;-90
2024/02/03 11:47:44;;;;;;;1.63;1.20;;;13.70;15.10;;;;;;5088395;28;20562;-89
2024/02/03 11:50:18;;;;;;;2.15;1.20;;;13.70;15.10;;;;;;5087186;28;20208;-89
2024/02/03 11:56:07;;;;;;;1.73;1.63;;;13.50;16.00;;;;;;5178952;22;20192;-90
2024/02/03 11:58:34;;;;;;;2.40;0.98;;;13.50;15.70;;;;;;5072783;28;20211;-90
2024/02/03 12:01:06;;;;;;;4.50;1.25;;;13.50;15.80;;;;;;5113331;28;20200;-90
2024/02/03 12:03:34;;;;;;;2.20;1.10;;;13.50;15.50;;;;;;5114657;28;20211;-90
2024/02/03 12:06:02;;;;;;;1.10;1.00;;;13.60;16.40;;;;;;5112951;28;20219;-90
2024/02/03 12:08:30;;;;;;;0.90;0.90;;;13.60;15.50;;;;;;5087947;28;20709;-90
2024/02/03 12:10:57;;;;;;;2.78;1.10;;;13.60;15.80;;;;;;5094728;28;20203;-88
2024/02/03 12:13:24;;;;;;;1.40;1.30;;;13.70;16.10;;;;;;5083999;28;20211;-91
2024/02/03 12:16:30;;;;;;;3.70;1.45;;;13.60;16.40;;;;;;5110326;28;20196;-89
2024/02/03 12:19:21;;;;;;;1.05;1.05;;;13.50;16.10;;;;;;5107202;28;20201;-86
2024/02/03 12:21:55;;;;;;;2.20;1.10;;;13.60;16.20;;;;;;5091850;28;20203;-88
2024/02/03 12:24:22;;;;;;;1.08;1.00;;;13.60;16.60;;;;;;5105751;28;20220;-90
2024/02/03 12:29:43;;;;;;;1.30;1.20;;;13.50;16.40;;;;;;5104383;28;20219;-88
2024/02/03 12:32:11;;;;;;;2.35;1.20;;;13.70;16.70;;;;;;5083725;28;20204;-89
2024/02/03 12:34:41;;;;;;;1.92;1.30;;;13.90;17.30;;;;;;5109958;28;20188;-89
2024/02/03 12:37:08;;;;;;;2.10;0.77;;;13.90;16.00;;;;;;5085403;28;20208;-86
2024/02/03 12:39:36;;;;;;;0.80;0.80;;;13.80;15.90;;;;;;5111056;28;20206;-86
2024/02/03 12:42:04;;;;;;;3.38;0.85;;;13.80;16.30;;;;;;5075366;28;20219;-89
2024/02/03 12:44:31;;;;;;;0.93;0.90;;;13.80;16.30;;;;;;5110135;28;20569;-84
2024/02/03 12:47:04;;;;;;;2.45;0.98;;;13.80;16.30;;;;;;5112626;28;20286;-83
2024/02/03 12:49:32;;;;;;;0.95;0.90;;;13.80;16.30;;;;;;5107440;28;20530;-84
2024/02/03 12:51:59;;;;;;;1.10;1.00;;;13.80;16.30;;;;;;5110501;28;20652;-85
2024/02/03 12:54:26;;;;;;;0.85;0.85;;;13.90;16.40;;;;;;5112626;28;20202;-83
2024/02/03 12:56:53;;;;;;;1.55;0.70;;;13.90;16.40;;;;;;5141445;22;20237;-89
2024/02/03 12:59:20;;;;;;;0.93;0.85;;;13.80;16.50;;;;;;5056119;28;20213;-83
2024/02/03 13:01:47;;;;;;;0.80;0.80;;;13.90;16.90;;;;;;5067207;28;20193;-85
2024/02/03 13:04:14;;;;;;;1.33;0.80;;;13.90;16.60;;;;;;5059301;28;20271;-84
2024/02/03 13:06:42;;;;;;;1.23;0.80;;;13.90;16.40;;;;;;5056084;28;20202;-85
2024/02/03 13:09:11;;;;;;;0.80;0.80;;;13.90;16.80;;;;;;5069405;28;20198;-85